createdAt,value
2022-09-23T00:00:47.576Z,4.50
2022-09-23T00:03:14.431Z,2.50
2022-09-23T00:05:40.885Z,2.90
2022-09-23T00:08:08.228Z,2.77
2022-09-23T00:10:36.959Z,7.83
2022-09-23T00:13:04.051Z,3.00
2022-09-23T00:15:31.221Z,4.00
2022-09-23T00:17:58.051Z,2.10
2022-09-23T00:20:24.499Z,3.23
2022-09-23T00:22:51.041Z,2.97
2022-09-23T00:25:17.487Z,4.27
2022-09-23T00:27:43.906Z,4.17
2022-09-23T00:30:10.422Z,3.30
2022-09-23T00:32:37.395Z,2.77
2022-09-23T00:35:06.894Z,3.90
2022-09-23T00:37:33.270Z,3.07
2022-09-23T00:40:00.440Z,2.30
2022-09-23T00:42:27.014Z,4.03
2022-09-23T00:44:53.355Z,3.40
2022-09-23T00:47:25.701Z,3.20
2022-09-23T00:49:56.557Z,3.63
2022-09-23T00:52:23.944Z,2.83
2022-09-23T00:54:53.480Z,2.07
2022-09-23T00:57:20.429Z,4.57
2022-09-23T00:59:47.966Z,4.00
2022-09-23T01:02:15.743Z,3.33
2022-09-23T01:04:43.042Z,5.33
2022-09-23T01:07:09.450Z,3.33
2022-09-23T01:09:36.419Z,3.33
2022-09-23T01:12:26.351Z,3.67
2022-09-23T01:15:00.514Z,2.10
2022-09-23T01:17:53.177Z,2.57
2022-09-23T01:20:39.202Z,4.07
2022-09-23T01:23:24.790Z,3.60
2022-09-23T01:26:04.017Z,4.63
2022-09-23T01:28:36.280Z,3.27
2022-09-23T01:31:09.545Z,2.83
2022-09-23T01:33:51.146Z,3.97
2022-09-23T01:36:26.376Z,4.23
2022-09-23T01:38:58.931Z,2.47
2022-09-23T01:41:34.360Z,5.17
2022-09-23T01:44:13.403Z,2.43
2022-09-23T01:46:49.364Z,4.10
2022-09-23T01:49:19.360Z,3.63
2022-09-23T01:51:47.102Z,5.17
2022-09-23T01:54:34.499Z,3.13
2022-09-23T01:57:04.043Z,4.23
2022-09-23T01:59:33.643Z,4.27
2022-09-23T02:02:03.202Z,2.47
2022-09-23T02:04:39.590Z,2.77
2022-09-23T02:07:10.139Z,2.90
2022-09-23T02:09:39.885Z,3.30
2022-09-23T02:12:08.518Z,3.80
2022-09-23T02:14:41.637Z,6.03
2022-09-23T02:17:13.560Z,3.77
2022-09-23T02:19:43.684Z,3.23
2022-09-23T02:22:30.109Z,3.63
2022-09-23T02:24:58.055Z,3.40
2022-09-23T02:27:35.138Z,6.27
2022-09-23T02:30:21.864Z,2.10
2022-09-23T02:32:51.280Z,3.20
2022-09-23T02:35:23.509Z,2.03
2022-09-23T02:38:04.151Z,2.43
2022-09-23T02:40:33.408Z,2.80
2022-09-23T02:43:08.676Z,3.10
2022-09-23T02:45:38.001Z,2.53
2022-09-23T02:48:07.768Z,3.10
2022-09-23T02:50:34.661Z,2.80
2022-09-23T02:53:01.899Z,2.80
2022-09-23T02:55:32.435Z,4.17
2022-09-23T02:58:03.572Z,2.93
2022-09-23T03:00:36.234Z,5.70
2022-09-23T03:03:20.336Z,5.00
2022-09-23T03:05:52.121Z,2.80
2022-09-23T03:08:43.404Z,4.57
2022-09-23T03:11:11.554Z,3.83
2022-09-23T03:13:54.166Z,3.67
2022-09-23T03:16:23.339Z,3.27
2022-09-23T03:18:50.327Z,4.63
2022-09-23T03:21:20.731Z,2.10
2022-09-23T03:23:48.015Z,3.33
2022-09-23T03:26:19.729Z,3.37
2022-09-23T03:28:46.379Z,3.47
2022-09-23T03:31:13.829Z,3.57
2022-09-23T03:33:42.948Z,4.30
2022-09-23T03:36:28.988Z,5.20
2022-09-23T03:38:59.343Z,2.77
2022-09-23T03:41:31.559Z,4.20
2022-09-23T03:43:58.818Z,3.87
2022-09-23T03:46:30.218Z,2.77
2022-09-23T03:48:59.882Z,2.63
2022-09-23T03:51:26.313Z,3.07
2022-09-23T03:53:53.200Z,4.23
2022-09-23T03:56:19.605Z,2.77
2022-09-23T03:58:46.631Z,2.50
2022-09-23T04:01:14.898Z,3.27
2022-09-23T04:03:41.705Z,6.43
2022-09-23T04:06:08.536Z,2.60
2022-09-23T04:08:34.948Z,2.07
2022-09-23T04:11:01.914Z,3.93
2022-09-23T04:13:28.722Z,3.60
2022-09-23T04:15:55.499Z,3.43
2022-09-23T04:18:21.942Z,2.47
2022-09-23T04:20:48.987Z,5.77
2022-09-23T04:23:15.539Z,5.87
2022-09-23T04:25:45.755Z,3.13
2022-09-23T04:28:12.236Z,2.43
2022-09-23T04:30:41.501Z,4.87
2022-09-23T04:33:08.233Z,2.87
2022-09-23T04:35:39.390Z,2.93
2022-09-23T04:38:12.903Z,4.00
2022-09-23T04:40:39.477Z,4.33
2022-09-23T04:43:07.799Z,2.00
2022-09-23T04:45:36.195Z,2.50
2022-09-23T04:48:03.203Z,2.80
2022-09-23T04:50:29.619Z,3.67
2022-09-23T04:52:56.040Z,2.33
2022-09-23T04:55:22.626Z,3.47
2022-09-23T04:57:49.004Z,3.37
2022-09-23T05:00:15.749Z,4.60
2022-09-23T05:02:42.978Z,4.70
2022-09-23T05:05:09.363Z,6.50
2022-09-23T05:07:36.301Z,2.80
2022-09-23T05:10:02.860Z,4.67
2022-09-23T05:12:29.216Z,5.67
2022-09-23T05:14:56.330Z,3.93
2022-09-23T05:17:22.892Z,6.27
2022-09-23T05:19:49.299Z,3.83
2022-09-23T05:22:15.980Z,9.33
2022-09-23T05:24:42.401Z,2.83
2022-09-23T05:27:08.782Z,4.33
2022-09-23T05:29:35.283Z,4.07
2022-09-23T05:32:01.773Z,11.50
2022-09-23T05:34:28.279Z,3.27
2022-09-23T05:36:54.625Z,6.50
2022-09-23T05:39:21.007Z,10.63
2022-09-23T05:41:47.575Z,6.60
2022-09-23T05:44:13.971Z,5.73
2022-09-23T05:46:40.393Z,6.30
2022-09-23T05:49:07.605Z,6.40
2022-09-23T05:51:35.535Z,6.37
2022-09-23T05:54:04.175Z,5.43
2022-09-23T05:56:31.420Z,5.13
2022-09-23T05:58:58.533Z,6.47
2022-09-23T06:01:26.190Z,4.43
2022-09-23T06:03:53.590Z,6.63
2022-09-23T06:06:21.172Z,3.83
2022-09-23T06:08:47.938Z,8.10
2022-09-23T06:11:14.499Z,4.17
2022-09-23T06:13:41.320Z,5.90
2022-09-23T06:16:09.331Z,3.87
2022-09-23T06:18:36.294Z,3.93
2022-09-23T06:21:03.275Z,3.63
2022-09-23T06:23:30.135Z,5.70
2022-09-23T06:26:00.353Z,4.70
2022-09-23T06:28:29.258Z,10.00
2022-09-23T06:31:03.411Z,4.27
2022-09-23T06:33:36.633Z,6.40
2022-09-23T06:36:04.713Z,4.13
2022-09-23T06:38:31.107Z,6.77
2022-09-23T06:40:58.117Z,2.83
2022-09-23T06:43:25.302Z,3.93
2022-09-23T06:45:59.025Z,2.77
2022-09-23T06:48:26.359Z,7.87
2022-09-23T06:50:53.782Z,3.80
2022-09-23T06:53:23.719Z,2.40
2022-09-23T06:56:01.411Z,5.07
2022-09-23T06:58:28.479Z,4.87
2022-09-23T07:01:00.217Z,2.97
2022-09-23T07:03:26.549Z,3.30
2022-09-23T07:05:56.404Z,4.10
2022-09-23T07:08:23.781Z,5.00
2022-09-23T07:10:57.467Z,2.37
2022-09-23T07:13:24.391Z,5.70
2022-09-23T07:15:55.803Z,2.77
2022-09-23T07:18:25.626Z,5.23
2022-09-23T07:20:52.511Z,3.97
2022-09-23T07:23:19.217Z,2.50
2022-09-23T07:25:50.394Z,7.13
2022-09-23T07:28:17.164Z,5.73
2022-09-23T07:30:55.592Z,3.23
2022-09-23T07:33:32.081Z,2.73
2022-09-23T07:35:59.180Z,4.27
2022-09-23T07:38:31.488Z,3.00
2022-09-23T07:41:17.784Z,4.00
2022-09-23T07:43:46.192Z,2.53
2022-09-23T07:46:17.510Z,6.57
2022-09-23T07:48:44.577Z,3.33
2022-09-23T07:51:13.105Z,2.30
2022-09-23T07:53:39.558Z,4.07
2022-09-23T07:56:06.745Z,4.13
2022-09-23T07:58:34.214Z,3.33
2022-09-23T08:01:09.088Z,3.67
2022-09-23T08:03:36.207Z,7.37
2022-09-23T08:06:04.236Z,4.70
2022-09-23T08:08:31.249Z,3.17
2022-09-23T08:11:02.617Z,2.13
2022-09-23T08:13:29.000Z,2.77
2022-09-23T08:15:55.781Z,3.87
2022-09-23T08:18:22.426Z,5.33
2022-09-23T08:20:48.823Z,3.60
2022-09-23T08:23:16.239Z,4.37
2022-09-23T08:25:46.024Z,4.67
2022-09-23T08:28:16.721Z,7.87
2022-09-23T08:30:44.351Z,5.43
2022-09-23T08:33:15.394Z,2.47
2022-09-23T08:35:44.193Z,4.90
2022-09-23T08:38:10.732Z,6.57
2022-09-23T08:40:42.129Z,4.17
2022-09-23T08:43:21.964Z,3.47
2022-09-23T08:45:50.670Z,7.00
2022-09-23T08:48:21.261Z,3.40
2022-09-23T08:50:50.140Z,3.33
2022-09-23T08:53:25.638Z,3.33
2022-09-23T08:55:53.530Z,2.73
2022-09-23T08:58:26.652Z,4.50
2022-09-23T09:00:53.320Z,3.13
2022-09-23T09:03:22.381Z,6.03
2022-09-23T09:05:54.488Z,10.23
2022-09-23T09:08:31.481Z,4.07
2022-09-23T09:10:58.546Z,3.47
2022-09-23T09:13:37.230Z,5.60
2022-09-23T09:16:07.005Z,3.93
2022-09-23T09:18:34.415Z,6.43
2022-09-23T09:21:08.577Z,2.43
2022-09-23T09:23:45.927Z,4.03
2022-09-23T09:26:17.123Z,6.53
2022-09-23T09:28:48.889Z,3.60
2022-09-23T09:31:15.322Z,5.70
2022-09-23T09:33:46.756Z,4.23
2022-09-23T09:36:23.691Z,7.23
2022-09-23T09:38:51.296Z,4.20
2022-09-23T09:41:18.244Z,5.37
2022-09-23T09:43:48.541Z,6.83
2022-09-23T09:46:34.256Z,5.67
2022-09-23T09:49:02.918Z,7.43
2022-09-23T09:51:29.537Z,4.70
2022-09-23T09:54:16.485Z,4.77
2022-09-23T09:56:44.701Z,7.80
2022-09-23T09:59:15.512Z,9.47
2022-09-23T10:01:42.243Z,5.63
2022-09-23T10:04:22.660Z,7.43
2022-09-23T10:07:09.929Z,6.37
2022-09-23T10:09:37.174Z,9.90
2022-09-23T10:12:15.599Z,6.77
2022-09-23T10:14:42.718Z,8.00
2022-09-23T10:17:15.864Z,6.13
2022-09-23T10:19:50.397Z,7.27
2022-09-23T10:22:19.121Z,7.00
2022-09-23T10:24:49.136Z,6.70
2022-09-23T10:27:17.077Z,7.70
2022-09-23T10:29:46.588Z,9.20
2022-09-23T10:32:18.993Z,12.17
2022-09-23T10:34:46.768Z,11.13
2022-09-23T10:37:15.468Z,11.10
2022-09-23T10:40:00.603Z,10.63
2022-09-23T10:43:00.772Z,7.37
2022-09-23T10:45:50.222Z,6.93
2022-09-23T10:48:24.754Z,7.67
2022-09-23T10:50:55.625Z,8.70
2022-09-23T10:53:26.030Z,8.90
2022-09-23T10:55:58.970Z,6.30
2022-09-23T10:58:43.667Z,6.43
2022-09-23T11:01:16.115Z,6.00
2022-09-23T11:04:12.186Z,5.20
2022-09-23T11:06:54.057Z,5.67
2022-09-23T11:09:31.165Z,7.50
2022-09-23T11:11:58.645Z,7.47
2022-09-23T11:14:25.024Z,7.73
2022-09-23T11:17:14.785Z,8.63
2022-09-23T11:19:51.824Z,6.77
2022-09-23T11:22:24.037Z,6.00
2022-09-23T11:24:58.207Z,4.47
2022-09-23T11:27:38.659Z,5.93
2022-09-23T11:30:12.710Z,9.37
2022-09-23T11:32:49.130Z,4.00
2022-09-23T11:35:19.461Z,6.27
2022-09-23T11:37:52.213Z,9.57
2022-09-23T11:40:21.435Z,5.83
2022-09-23T11:42:54.716Z,6.00
2022-09-23T11:45:24.150Z,11.00
2022-09-23T11:48:06.124Z,6.90
2022-09-23T11:50:48.091Z,8.50
2022-09-23T11:53:18.685Z,6.70
2022-09-23T11:55:57.373Z,6.93
2022-09-23T11:58:33.464Z,10.03
2022-09-23T12:01:02.402Z,6.30
2022-09-23T12:03:44.307Z,8.90
2022-09-23T12:06:15.155Z,9.63
2022-09-23T12:08:41.698Z,4.53
2022-09-23T12:11:08.609Z,8.90
2022-09-23T12:13:38.031Z,9.07
2022-09-23T12:16:07.485Z,10.47
2022-09-23T12:18:57.283Z,7.67
2022-09-23T12:21:50.949Z,10.03
2022-09-23T12:24:34.724Z,7.17
2022-09-23T12:27:06.106Z,6.70
2022-09-23T12:29:33.192Z,8.17
2022-09-23T12:32:00.542Z,7.97
2022-09-23T12:34:36.904Z,13.63
2022-09-23T12:37:04.497Z,6.23
2022-09-23T12:39:31.983Z,8.90
2022-09-23T12:42:03.328Z,6.73
2022-09-23T12:44:36.857Z,6.03
2022-09-23T12:47:21.046Z,8.00
2022-09-23T12:49:48.097Z,5.03
2022-09-23T12:52:17.645Z,5.67
2022-09-23T12:54:45.394Z,7.07
2022-09-23T12:57:34.746Z,5.03
2022-09-23T13:00:11.301Z,11.53
2022-09-23T13:03:16.819Z,6.83
2022-09-23T13:06:12.074Z,5.67
2022-09-23T13:08:40.479Z,9.43
2022-09-23T13:11:23.820Z,5.40
2022-09-23T13:13:50.912Z,4.10
2022-09-23T13:16:37.435Z,4.17
2022-09-23T13:19:05.211Z,8.93
2022-09-23T13:21:44.531Z,8.83
2022-09-23T13:24:33.936Z,8.27
2022-09-23T13:27:08.261Z,7.17
2022-09-23T13:29:41.082Z,6.53
2022-09-23T13:32:11.880Z,6.07
2022-09-23T13:34:39.955Z,6.57
2022-09-23T13:37:39.392Z,6.03
2022-09-23T13:40:09.962Z,8.10
2022-09-23T13:42:40.092Z,8.27
2022-09-23T13:45:12.505Z,9.90
2022-09-23T13:47:42.342Z,9.97
2022-09-23T13:50:14.750Z,6.63
2022-09-23T13:52:41.710Z,10.33
2022-09-23T13:55:23.268Z,6.17
2022-09-23T13:57:56.596Z,8.77
2022-09-23T14:00:23.874Z,5.90
2022-09-23T14:02:50.307Z,8.37
2022-09-23T14:05:24.045Z,4.80
2022-09-23T14:07:57.196Z,8.50
2022-09-23T14:10:24.851Z,5.57
2022-09-23T14:12:52.411Z,10.63
2022-09-23T14:15:19.598Z,6.73
2022-09-23T14:17:47.394Z,5.97
2022-09-23T14:20:14.586Z,8.67
2022-09-23T14:22:41.157Z,7.40
2022-09-23T14:25:13.141Z,6.87
2022-09-23T14:27:40.552Z,6.13
2022-09-23T14:30:13.754Z,5.67
2022-09-23T14:32:40.399Z,4.13
2022-09-23T14:35:16.590Z,7.33
2022-09-23T14:38:02.587Z,6.63
2022-09-23T14:40:29.540Z,10.17
2022-09-23T14:42:58.863Z,8.10
2022-09-23T14:45:26.439Z,6.57
2022-09-23T14:47:56.956Z,10.03
2022-09-23T14:50:37.861Z,6.43
2022-09-23T14:53:04.917Z,8.40
2022-09-23T14:55:31.564Z,8.03
2022-09-23T14:58:04.740Z,8.50
2022-09-23T15:00:41.011Z,8.53
2022-09-23T15:03:16.577Z,5.60
2022-09-23T15:05:45.264Z,6.53
2022-09-23T15:08:15.830Z,5.47
2022-09-23T15:10:42.293Z,6.23
2022-09-23T15:13:12.396Z,5.27
2022-09-23T15:15:38.787Z,5.47
2022-09-23T15:18:06.956Z,5.97
2022-09-23T15:20:34.123Z,3.33
2022-09-23T15:23:01.147Z,4.33
2022-09-23T15:25:30.525Z,5.63
2022-09-23T15:27:56.940Z,4.13
2022-09-23T15:30:23.669Z,4.60
2022-09-23T15:32:50.223Z,7.10
2022-09-23T15:35:25.947Z,5.23
2022-09-23T15:37:54.239Z,3.87
2022-09-23T15:40:23.824Z,3.60
2022-09-23T15:42:53.032Z,4.20
2022-09-23T15:45:22.394Z,4.30
2022-09-23T15:47:50.296Z,4.30
2022-09-23T15:50:17.521Z,4.50
2022-09-23T15:52:47.159Z,4.70
2022-09-23T15:55:23.869Z,7.47
2022-09-23T15:57:50.411Z,5.50
2022-09-23T16:00:17.083Z,5.17
2022-09-23T16:02:44.701Z,4.30
2022-09-23T16:05:16.751Z,4.90
2022-09-23T16:07:43.180Z,5.67
2022-09-23T16:10:09.673Z,3.33
2022-09-23T16:12:37.010Z,4.97
2022-09-23T16:15:03.546Z,3.57
2022-09-23T16:17:31.235Z,5.30
2022-09-23T16:19:57.629Z,5.60
2022-09-23T16:22:24.086Z,6.57
2022-09-23T16:24:50.503Z,6.43
2022-09-23T16:27:18.401Z,6.57
2022-09-23T16:29:44.845Z,8.20
2022-09-23T16:32:11.298Z,15.40
2022-09-23T16:34:37.695Z,12.30
2022-09-23T16:37:04.812Z,9.50
2022-09-23T16:39:31.292Z,11.83
2022-09-23T16:41:58.792Z,9.07
2022-09-23T16:44:25.263Z,8.53
2022-09-23T16:46:51.861Z,7.93
2022-09-23T16:49:18.307Z,8.27
2022-09-23T16:51:45.384Z,5.63
2022-09-23T16:54:12.601Z,8.47
2022-09-23T16:56:44.012Z,5.73
2022-09-23T16:59:11.031Z,6.90
2022-09-23T17:01:56.160Z,7.40
2022-09-23T17:04:24.863Z,6.47
2022-09-23T17:06:52.042Z,6.83
2022-09-23T17:09:19.930Z,8.03
2022-09-23T17:11:48.934Z,10.70
2022-09-23T17:14:16.330Z,7.07
2022-09-23T17:16:43.122Z,7.10
2022-09-23T17:19:10.424Z,5.53
2022-09-23T17:21:37.114Z,6.97
2022-09-23T17:24:03.686Z,7.27
2022-09-23T17:26:30.149Z,5.17
2022-09-23T17:28:57.200Z,5.33
2022-09-23T17:31:24.715Z,5.90
2022-09-23T17:33:51.926Z,6.93
2022-09-23T17:36:18.711Z,7.70
2022-09-23T17:38:48.331Z,6.17
2022-09-23T17:41:15.337Z,7.07
2022-09-23T17:43:42.026Z,8.83
2022-09-23T17:46:13.391Z,8.73
2022-09-23T17:48:41.413Z,12.10
2022-09-23T17:51:10.004Z,14.17
2022-09-23T17:53:37.642Z,9.83
2022-09-23T17:56:05.654Z,12.37
2022-09-23T17:58:33.784Z,11.73
2022-09-23T18:01:00.430Z,8.53
2022-09-23T18:03:27.896Z,11.47
2022-09-23T18:05:54.744Z,8.67
2022-09-23T18:08:21.286Z,11.10
2022-09-23T18:10:47.970Z,10.83
2022-09-23T18:13:14.445Z,14.07
2022-09-23T18:15:40.974Z,9.43
2022-09-23T18:18:07.424Z,10.63
2022-09-23T18:20:34.195Z,9.00
2022-09-23T18:23:00.611Z,7.57
2022-09-23T18:25:39.287Z,9.67
2022-09-23T18:28:06.259Z,11.57
2022-09-23T18:30:33.678Z,9.30
2022-09-23T18:33:00.203Z,6.23
2022-09-23T18:35:26.813Z,7.80
2022-09-23T18:37:53.222Z,7.33
2022-09-23T18:40:19.642Z,8.10
2022-09-23T18:42:46.143Z,12.27
2022-09-23T18:45:12.560Z,8.70
2022-09-23T18:47:57.389Z,8.47
2022-09-23T18:50:43.993Z,7.27
2022-09-23T18:53:10.558Z,11.00
2022-09-23T18:55:37.183Z,10.30
2022-09-23T18:58:03.611Z,6.70
2022-09-23T19:00:30.144Z,12.40
2022-09-23T19:02:57.170Z,9.23
2022-09-23T19:05:23.636Z,5.23
2022-09-23T19:07:50.014Z,8.77
2022-09-23T19:10:16.487Z,8.73
2022-09-23T19:12:42.867Z,7.20
2022-09-23T19:15:09.380Z,7.83
2022-09-23T19:17:35.857Z,7.27
2022-09-23T19:20:02.286Z,9.40
2022-09-23T19:22:30.507Z,6.57
2022-09-23T19:24:56.916Z,6.00
2022-09-23T19:27:23.518Z,6.77
2022-09-23T19:29:50.307Z,8.27
2022-09-23T19:32:16.810Z,4.70
2022-09-23T19:34:45.882Z,7.23
2022-09-23T19:37:13.012Z,7.07
2022-09-23T19:39:40.819Z,8.80
2022-09-23T19:42:07.745Z,7.70
2022-09-23T19:44:37.799Z,6.80
2022-09-23T19:47:04.382Z,7.40
2022-09-23T19:49:31.117Z,8.43
2022-09-23T19:51:57.522Z,6.00
2022-09-23T19:54:26.726Z,8.37
2022-09-23T19:56:53.251Z,9.03
2022-09-23T19:59:19.986Z,11.10
2022-09-23T20:01:46.848Z,10.03
2022-09-23T20:04:13.305Z,7.27
2022-09-23T20:06:40.014Z,10.63
2022-09-23T20:09:06.792Z,8.87
2022-09-23T20:11:33.581Z,6.97
2022-09-23T20:14:02.190Z,7.73
2022-09-23T20:16:32.718Z,8.20
2022-09-23T20:19:00.319Z,6.63
2022-09-23T20:21:28.196Z,6.20
2022-09-23T20:23:54.596Z,7.73
2022-09-23T20:26:39.747Z,9.30
2022-09-23T20:29:06.207Z,13.00
2022-09-23T20:31:34.498Z,6.87
2022-09-23T20:34:06.351Z,8.97
2022-09-23T20:36:34.042Z,9.40
2022-09-23T20:39:02.269Z,8.23
2022-09-23T20:41:30.305Z,6.77
2022-09-23T20:44:00.621Z,7.17
2022-09-23T20:46:28.780Z,7.37
2022-09-23T20:48:56.713Z,8.47
2022-09-23T20:51:24.062Z,9.37
2022-09-23T20:53:54.161Z,9.53
2022-09-23T20:56:20.964Z,8.30
2022-09-23T20:58:48.626Z,6.47
2022-09-23T21:01:15.980Z,7.83
2022-09-23T21:03:43.785Z,6.87
2022-09-23T21:06:10.660Z,7.93
2022-09-23T21:08:37.609Z,8.63
2022-09-23T21:11:05.158Z,10.70
2022-09-23T21:13:33.009Z,6.70
2022-09-23T21:16:03.390Z,8.73
2022-09-23T21:18:30.133Z,6.37
2022-09-23T21:20:57.343Z,7.60
2022-09-23T21:23:24.811Z,8.80
2022-09-23T21:25:51.243Z,6.53
2022-09-23T21:28:17.660Z,8.23
2022-09-23T21:30:46.415Z,10.47
2022-09-23T21:33:18.339Z,10.07
2022-09-23T21:35:44.762Z,6.97
2022-09-23T21:38:11.133Z,7.07
2022-09-23T21:40:56.169Z,6.10
2022-09-23T21:43:23.642Z,8.10
2022-09-23T21:45:57.059Z,9.07
2022-09-23T21:48:24.343Z,9.80
2022-09-23T21:50:54.590Z,7.43
2022-09-23T21:53:21.289Z,7.90
2022-09-23T21:55:48.911Z,11.83
2022-09-23T21:58:15.497Z,7.37
2022-09-23T22:00:42.082Z,7.10
2022-09-23T22:03:08.604Z,7.77
2022-09-23T22:05:35.003Z,7.50
2022-09-23T22:08:01.582Z,8.30
2022-09-23T22:10:27.986Z,7.87
2022-09-23T22:12:54.470Z,4.90
2022-09-23T22:15:20.979Z,9.17
2022-09-23T22:17:48.185Z,8.70
2022-09-23T22:20:16.047Z,10.33
2022-09-23T22:22:42.449Z,14.97
2022-09-23T22:25:09.139Z,11.73
2022-09-23T22:27:55.484Z,11.10
2022-09-23T22:30:40.543Z,7.67
2022-09-23T22:33:07.076Z,10.47
2022-09-23T22:35:33.488Z,13.50
2022-09-23T22:38:01.166Z,11.67
2022-09-23T22:40:27.586Z,11.10
2022-09-23T22:42:54.361Z,9.87
2022-09-23T22:45:20.752Z,14.77
2022-09-23T22:47:47.120Z,15.90
2022-09-23T22:50:15.378Z,15.37
2022-09-23T22:52:41.934Z,13.67
2022-09-23T22:55:08.566Z,15.27
2022-09-23T22:57:37.197Z,15.40
2022-09-23T23:00:07.848Z,12.53
2022-09-23T23:02:34.347Z,17.23
2022-09-23T23:05:01.421Z,15.60
2022-09-23T23:07:27.789Z,13.40
2022-09-23T23:09:54.197Z,13.90
2022-09-23T23:12:21.429Z,17.33
2022-09-23T23:14:48.110Z,15.50
2022-09-23T23:17:14.876Z,17.37
2022-09-23T23:19:41.337Z,17.50
2022-09-23T23:22:07.716Z,14.40
2022-09-23T23:24:34.127Z,14.40
2022-09-23T23:27:00.597Z,14.13
2022-09-23T23:29:27.849Z,14.37
2022-09-23T23:31:54.319Z,16.07
2022-09-23T23:34:21.475Z,16.50
2022-09-23T23:36:54.601Z,16.60
2022-09-23T23:39:24.443Z,17.07
2022-09-23T23:41:53.346Z,13.33
2022-09-23T23:44:19.715Z,16.90
2022-09-23T23:46:46.647Z,16.73
2022-09-23T23:49:13.079Z,21.40
2022-09-23T23:51:39.489Z,13.37
2022-09-23T23:54:06.423Z,14.20
2022-09-23T23:56:32.872Z,14.60
2022-09-23T23:59:00.493Z,16.33
